Terminal Aerodrome Forecast
Issued by NWS Jackson, MS

Home | Current Version | Previous Version | Text Only | Print | Product List | Glossary On
Versions: 1 2 3 4 5 6 7 8 9 10 11 12 13 14 15 16 17 18 19 20 21 22 23
000
FTUS44 KMEG 272326
TAFTUP
TAF
KTUP 272326Z 2800/2824 17005KT P6SM VCSH SCT050 BKN100
     FM280300 VRB02KT P6SM FEW050 SCT250
     FM280900 00000KT 5SM BR BKN005
      TEMPO 2810/2813 1SM BR BKN003
     FM281500 17005KT P6SM BKN050=

USA.gov is the U.S. government's official web portal to all federal, state and local government web resources and services.